Terminal Aerodrome Forecast
Issued by NWS Tampa Bay Area, FL

Home | Current Version | Previous Version | Text Only | Print | Product List | Glossary On
Versions: 1 2 3 4 5 6 7 8 9 10 11 12 13 14 15
000
FTUS42 KTBW 252324
TAFFMY
TAF
KFMY 252324Z 2600/2624 05006KT P6SM FEW040 SCT250
     FM260200 VRB03KT P6SM SCT250
     FM261500 08005KT P6SM FEW030 SCT250
     FM262000 25007KT P6SM VCTS SCT040CB SCT250=

USA.gov is the U.S. government's official web portal to all federal, state and local government web resources and services.